sensor_id;sensor_type;location;lat;lon;timestamp;P1;durP1;ratioP1;P2;durP2;ratioP2
55362;SDS011;41244;49.242;9.060;2023-04-06T00:02:03;11.43;;;9.82;;
55362;SDS011;41244;49.242;9.060;2023-04-06T00:04:29;11.85;;;10.65;;
55362;SDS011;41244;49.242;9.060;2023-04-06T00:06:55;12.23;;;10.93;;
55362;SDS011;41244;49.242;9.060;2023-04-06T00:09:21;15.45;;;11.48;;
55362;SDS011;41244;49.242;9.060;2023-04-06T00:11:47;14.05;;;10.77;;
55362;SDS011;41244;49.242;9.060;2023-04-06T00:14:13;13.35;;;10.52;;
55362;SDS011;41244;49.242;9.060;2023-04-06T00:16:39;13.02;;;10.77;;
55362;SDS011;41244;49.242;9.060;2023-04-06T00:19:04;12.07;;;10.60;;
55362;SDS011;41244;49.242;9.060;2023-04-06T00:21:30;12.50;;;9.93;;
55362;SDS011;41244;49.242;9.060;2023-04-06T00:23:57;13.98;;;11.27;;
55362;SDS011;41244;49.242;9.060;2023-04-06T00:26:23;11.63;;;10.43;;
55362;SDS011;41244;49.242;9.060;2023-04-06T00:28:48;13.18;;;10.75;;
55362;SDS011;41244;49.242;9.060;2023-04-06T00:31:17;12.93;;;10.95;;
55362;SDS011;41244;49.242;9.060;2023-04-06T00:33:42;12.18;;;10.88;;
55362;SDS011;41244;49.242;9.060;2023-04-06T00:36:08;13.30;;;10.77;;
55362;SDS011;41244;49.242;9.060;2023-04-06T00:38:34;13.50;;;10.63;;
55362;SDS011;41244;49.242;9.060;2023-04-06T00:41:00;11.98;;;10.38;;
55362;SDS011;41244;49.242;9.060;2023-04-06T00:43:26;11.82;;;10.32;;
55362;SDS011;41244;49.242;9.060;2023-04-06T00:45:52;14.10;;;11.50;;
55362;SDS011;41244;49.242;9.060;2023-04-06T00:48:18;15.00;;;11.02;;
55362;SDS011;41244;49.242;9.060;2023-04-06T00:50:43;15.27;;;11.50;;
55362;SDS011;41244;49.242;9.060;2023-04-06T00:53:09;12.63;;;11.18;;
55362;SDS011;41244;49.242;9.060;2023-04-06T00:55:35;12.20;;;9.98;;
55362;SDS011;41244;49.242;9.060;2023-04-06T00:58:01;12.98;;;10.88;;
55362;SDS011;41244;49.242;9.060;2023-04-06T01:00:27;13.60;;;11.40;;
55362;SDS011;41244;49.242;9.060;2023-04-06T01:02:53;12.35;;;11.05;;
55362;SDS011;41244;49.242;9.060;2023-04-06T01:05:19;14.40;;;11.00;;
55362;SDS011;41244;49.242;9.060;2023-04-06T01:07:45;13.45;;;11.52;;
55362;SDS011;41244;49.242;9.060;2023-04-06T01:10:11;13.77;;;11.27;;
55362;SDS011;41244;49.242;9.060;2023-04-06T01:12:50;13.10;;;11.30;;
55362;SDS011;41244;49.242;9.060;2023-04-06T01:15:16;14.00;;;11.13;;
55362;SDS011;41244;49.242;9.060;2023-04-06T01:17:42;13.02;;;10.90;;
55362;SDS011;41244;49.242;9.060;2023-04-06T01:20:08;14.82;;;11.48;;
55362;SDS011;41244;49.242;9.060;2023-04-06T01:22:33;12.65;;;10.95;;
55362;SDS011;41244;49.242;9.060;2023-04-06T01:24:59;13.88;;;10.90;;
55362;SDS011;41244;49.242;9.060;2023-04-06T01:27:25;12.63;;;11.23;;
55362;SDS011;41244;49.242;9.060;2023-04-06T01:29:52;14.05;;;11.07;;
55362;SDS011;41244;49.242;9.060;2023-04-06T01:32:18;12.50;;;10.30;;
55362;SDS011;41244;49.242;9.060;2023-04-06T01:34:44;15.15;;;11.73;;
55362;SDS011;41244;49.242;9.060;2023-04-06T01:37:10;16.08;;;11.48;;
55362;SDS011;41244;49.242;9.060;2023-04-06T01:39:36;13.65;;;11.00;;
55362;SDS011;41244;49.242;9.060;2023-04-06T01:42:02;12.55;;;10.82;;
55362;SDS011;41244;49.242;9.060;2023-04-06T01:44:27;12.40;;;10.90;;
55362;SDS011;41244;49.242;9.060;2023-04-06T01:46:55;13.68;;;11.32;;
55362;SDS011;41244;49.242;9.060;2023-04-06T01:49:21;12.50;;;11.20;;
55362;SDS011;41244;49.242;9.060;2023-04-06T01:51:47;12.18;;;10.88;;
55362;SDS011;41244;49.242;9.060;2023-04-06T01:54:13;12.75;;;10.93;;
55362;SDS011;41244;49.242;9.060;2023-04-06T01:56:39;14.75;;;11.10;;
55362;SDS011;41244;49.242;9.060;2023-04-06T01:59:05;11.93;;;10.52;;
55362;SDS011;41244;49.242;9.060;2023-04-06T02:01:31;12.15;;;10.85;;
55362;SDS011;41244;49.242;9.060;2023-04-06T02:03:57;13.60;;;11.20;;
55362;SDS011;41244;49.242;9.060;2023-04-06T02:06:23;16.75;;;13.07;;
55362;SDS011;41244;49.242;9.060;2023-04-06T02:08:49;14.30;;;11.80;;
55362;SDS011;41244;49.242;9.060;2023-04-06T02:11:14;16.27;;;12.40;;
55362;SDS011;41244;49.242;9.060;2023-04-06T02:13:40;12.88;;;11.48;;
55362;SDS011;41244;49.242;9.060;2023-04-06T02:16:06;14.63;;;12.23;;
55362;SDS011;41244;49.242;9.060;2023-04-06T02:18:32;13.88;;;11.27;;
55362;SDS011;41244;49.242;9.060;2023-04-06T02:20:58;12.80;;;11.00;;
55362;SDS011;41244;49.242;9.060;2023-04-06T02:23:24;14.63;;;11.05;;
55362;SDS011;41244;49.242;9.060;2023-04-06T02:25:50;13.93;;;12.13;;
55362;SDS011;41244;49.242;9.060;2023-04-06T02:28:15;14.20;;;12.10;;
55362;SDS011;41244;49.242;9.060;2023-04-06T02:30:41;14.25;;;11.77;;
55362;SDS011;41244;49.242;9.060;2023-04-06T02:33:07;14.27;;;11.55;;
55362;SDS011;41244;49.242;9.060;2023-04-06T02:35:33;15.00;;;11.23;;
55362;SDS011;41244;49.242;9.060;2023-04-06T02:37:58;15.50;;;12.48;;
55362;SDS011;41244;49.242;9.060;2023-04-06T02:40:24;16.23;;;11.60;;
55362;SDS011;41244;49.242;9.060;2023-04-06T02:42:50;15.90;;;12.90;;
55362;SDS011;41244;49.242;9.060;2023-04-06T02:45:16;14.10;;;11.65;;
55362;SDS011;41244;49.242;9.060;2023-04-06T02:47:42;14.65;;;12.20;;
55362;SDS011;41244;49.242;9.060;2023-04-06T02:50:07;18.92;;;13.48;;
55362;SDS011;41244;49.242;9.060;2023-04-06T02:52:34;16.98;;;12.90;;
55362;SDS011;41244;49.242;9.060;2023-04-06T02:55:00;16.48;;;13.00;;
55362;SDS011;41244;49.242;9.060;2023-04-06T02:57:25;17.23;;;13.98;;
55362;SDS011;41244;49.242;9.060;2023-04-06T02:59:51;14.43;;;12.40;;
55362;SDS011;41244;49.242;9.060;2023-04-06T03:02:17;15.80;;;12.32;;
55362;SDS011;41244;49.242;9.060;2023-04-06T03:04:43;17.67;;;12.60;;
55362;SDS011;41244;49.242;9.060;2023-04-06T03:07:09;17.67;;;12.52;;
55362;SDS011;41244;49.242;9.060;2023-04-06T03:09:38;14.05;;;11.75;;
55362;SDS011;41244;49.242;9.060;2023-04-06T03:12:04;13.40;;;12.00;;
55362;SDS011;41244;49.242;9.060;2023-04-06T03:14:30;15.23;;;12.60;;
55362;SDS011;41244;49.242;9.060;2023-04-06T03:16:56;14.23;;;11.88;;
55362;SDS011;41244;49.242;9.060;2023-04-06T03:19:22;14.32;;;11.85;;
55362;SDS011;41244;49.242;9.060;2023-04-06T03:21:48;13.38;;;11.23;;
55362;SDS011;41244;49.242;9.060;2023-04-06T03:24:13;13.88;;;11.80;;
55362;SDS011;41244;49.242;9.060;2023-04-06T03:26:39;13.57;;;11.65;;
55362;SDS011;41244;49.242;9.060;2023-04-06T03:29:06;15.10;;;12.15;;
55362;SDS011;41244;49.242;9.060;2023-04-06T03:31:32;14.15;;;12.32;;
55362;SDS011;41244;49.242;9.060;2023-04-06T03:33:57;14.98;;;12.20;;
55362;SDS011;41244;49.242;9.060;2023-04-06T03:36:24;15.25;;;12.32;;
55362;SDS011;41244;49.242;9.060;2023-04-06T03:38:51;13.20;;;11.75;;
55362;SDS011;41244;49.242;9.060;2023-04-06T03:41:18;12.88;;;11.48;;
55362;SDS011;41244;49.242;9.060;2023-04-06T03:43:44;14.18;;;12.15;;
55362;SDS011;41244;49.242;9.060;2023-04-06T03:46:10;15.38;;;12.45;;
55362;SDS011;41244;49.242;9.060;2023-04-06T03:48:36;13.88;;;11.93;;
55362;SDS011;41244;49.242;9.060;2023-04-06T03:51:02;15.60;;;12.63;;
55362;SDS011;41244;49.242;9.060;2023-04-06T03:53:28;14.77;;;12.13;;
55362;SDS011;41244;49.242;9.060;2023-04-06T03:55:53;14.18;;;12.02;;
55362;SDS011;41244;49.242;9.060;2023-04-06T03:58:19;15.55;;;12.95;;
55362;SDS011;41244;49.242;9.060;2023-04-06T04:00:45;16.58;;;12.93;;
55362;SDS011;41244;49.242;9.060;2023-04-06T04:03:11;14.10;;;11.65;;
55362;SDS011;41244;49.242;9.060;2023-04-06T04:05:36;16.83;;;12.40;;
55362;SDS011;41244;49.242;9.060;2023-04-06T04:08:02;14.10;;;11.95;;
55362;SDS011;41244;49.242;9.060;2023-04-06T04:10:28;14.75;;;12.00;;
55362;SDS011;41244;49.242;9.060;2023-04-06T04:12:54;14.18;;;11.65;;
55362;SDS011;41244;49.242;9.060;2023-04-06T04:15:20;12.93;;;11.38;;
55362;SDS011;41244;49.242;9.060;2023-04-06T04:17:45;16.05;;;11.43;;
55362;SDS011;41244;49.242;9.060;2023-04-06T04:20:14;18.35;;;12.80;;
55362;SDS011;41244;49.242;9.060;2023-04-06T04:22:41;13.27;;;11.85;;
55362;SDS011;41244;49.242;9.060;2023-04-06T04:25:07;15.98;;;12.77;;
55362;SDS011;41244;49.242;9.060;2023-04-06T04:27:33;14.38;;;12.45;;
55362;SDS011;41244;49.242;9.060;2023-04-06T04:30:00;18.55;;;12.57;;
55362;SDS011;41244;49.242;9.060;2023-04-06T04:32:25;14.35;;;12.45;;
55362;SDS011;41244;49.242;9.060;2023-04-06T04:34:53;13.57;;;11.95;;
55362;SDS011;41244;49.242;9.060;2023-04-06T04:37:19;17.60;;;12.73;;
55362;SDS011;41244;49.242;9.060;2023-04-06T04:39:45;15.98;;;12.48;;
55362;SDS011;41244;49.242;9.060;2023-04-06T04:42:11;16.02;;;11.90;;
55362;SDS011;41244;49.242;9.060;2023-04-06T04:44:37;14.13;;;12.02;;
55362;SDS011;41244;49.242;9.060;2023-04-06T04:47:02;13.40;;;11.77;;
55362;SDS011;41244;49.242;9.060;2023-04-06T04:49:28;15.40;;;12.35;;
55362;SDS011;41244;49.242;9.060;2023-04-06T04:51:54;13.77;;;11.55;;
55362;SDS011;41244;49.242;9.060;2023-04-06T04:54:20;14.02;;;12.32;;
55362;SDS011;41244;49.242;9.060;2023-04-06T04:56:46;15.52;;;12.18;;
55362;SDS011;41244;49.242;9.060;2023-04-06T04:59:11;16.40;;;13.60;;
55362;SDS011;41244;49.242;9.060;2023-04-06T05:01:37;18.73;;;12.90;;
55362;SDS011;41244;49.242;9.060;2023-04-06T05:04:03;18.55;;;13.18;;
55362;SDS011;41244;49.242;9.060;2023-04-06T05:06:29;16.27;;;13.20;;
55362;SDS011;41244;49.242;9.060;2023-04-06T05:08:55;16.80;;;13.18;;
55362;SDS011;41244;49.242;9.060;2023-04-06T05:11:21;18.65;;;13.98;;
55362;SDS011;41244;49.242;9.060;2023-04-06T05:13:47;17.83;;;13.50;;
55362;SDS011;41244;49.242;9.060;2023-04-06T05:16:12;17.48;;;13.20;;
55362;SDS011;41244;49.242;9.060;2023-04-06T05:18:38;18.10;;;13.05;;
55362;SDS011;41244;49.242;9.060;2023-04-06T05:21:04;15.30;;;12.70;;
55362;SDS011;41244;49.242;9.060;2023-04-06T05:23:30;18.20;;;13.60;;
55362;SDS011;41244;49.242;9.060;2023-04-06T05:25:56;17.90;;;13.07;;
55362;SDS011;41244;49.242;9.060;2023-04-06T05:28:21;19.13;;;14.13;;
55362;SDS011;41244;49.242;9.060;2023-04-06T05:30:47;13.95;;;11.48;;
55362;SDS011;41244;49.242;9.060;2023-04-06T05:33:13;16.95;;;12.93;;
55362;SDS011;41244;49.242;9.060;2023-04-06T05:35:39;17.75;;;12.25;;
55362;SDS011;41244;49.242;9.060;2023-04-06T05:38:07;16.55;;;13.27;;
55362;SDS011;41244;49.242;9.060;2023-04-06T05:40:35;17.88;;;12.45;;
55362;SDS011;41244;49.242;9.060;2023-04-06T05:43:02;21.65;;;13.57;;
55362;SDS011;41244;49.242;9.060;2023-04-06T05:45:28;16.15;;;12.77;;
55362;SDS011;41244;49.242;9.060;2023-04-06T05:47:55;18.55;;;13.63;;
55362;SDS011;41244;49.242;9.060;2023-04-06T05:50:20;17.50;;;14.05;;
55362;SDS011;41244;49.242;9.060;2023-04-06T05:52:47;19.40;;;14.23;;
55362;SDS011;41244;49.242;9.060;2023-04-06T05:55:13;14.75;;;13.23;;
55362;SDS011;41244;49.242;9.060;2023-04-06T05:57:39;18.10;;;13.63;;
55362;SDS011;41244;49.242;9.060;2023-04-06T06:00:05;16.63;;;13.75;;
55362;SDS011;41244;49.242;9.060;2023-04-06T06:02:34;17.55;;;13.80;;
55362;SDS011;41244;49.242;9.060;2023-04-06T06:05:00;15.82;;;12.55;;
55362;SDS011;41244;49.242;9.060;2023-04-06T06:07:26;19.17;;;14.00;;
55362;SDS011;41244;49.242;9.060;2023-04-06T06:09:52;18.33;;;13.07;;
55362;SDS011;41244;49.242;9.060;2023-04-06T06:12:21;16.92;;;13.43;;
55362;SDS011;41244;49.242;9.060;2023-04-06T06:14:46;15.70;;;13.73;;
55362;SDS011;41244;49.242;9.060;2023-04-06T06:17:12;17.17;;;13.55;;
55362;SDS011;41244;49.242;9.060;2023-04-06T06:19:40;17.95;;;14.32;;
55362;SDS011;41244;49.242;9.060;2023-04-06T06:22:05;16.05;;;14.13;;
55362;SDS011;41244;49.242;9.060;2023-04-06T06:24:31;18.48;;;14.32;;
55362;SDS011;41244;49.242;9.060;2023-04-06T06:26:58;18.20;;;13.30;;
55362;SDS011;41244;49.242;9.060;2023-04-06T06:29:24;18.30;;;13.60;;
55362;SDS011;41244;49.242;9.060;2023-04-06T06:31:49;18.08;;;13.27;;
55362;SDS011;41244;49.242;9.060;2023-04-06T06:34:15;17.67;;;13.60;;
55362;SDS011;41244;49.242;9.060;2023-04-06T06:36:41;25.25;;;18.98;;
55362;SDS011;41244;49.242;9.060;2023-04-06T06:39:07;15.85;;;13.38;;
55362;SDS011;41244;49.242;9.060;2023-04-06T06:41:33;15.23;;;13.63;;
55362;SDS011;41244;49.242;9.060;2023-04-06T06:43:58;17.55;;;13.57;;
55362;SDS011;41244;49.242;9.060;2023-04-06T06:46:24;15.65;;;13.20;;
55362;SDS011;41244;49.242;9.060;2023-04-06T06:48:50;17.58;;;13.23;;
55362;SDS011;41244;49.242;9.060;2023-04-06T06:51:16;15.00;;;13.10;;
55362;SDS011;41244;49.242;9.060;2023-04-06T06:53:42;15.73;;;13.13;;
55362;SDS011;41244;49.242;9.060;2023-04-06T06:56:08;17.85;;;13.80;;
55362;SDS011;41244;49.242;9.060;2023-04-06T06:58:33;15.82;;;13.60;;
55362;SDS011;41244;49.242;9.060;2023-04-06T07:00:59;15.52;;;13.02;;
55362;SDS011;41244;49.242;9.060;2023-04-06T07:03:25;15.80;;;14.10;;
55362;SDS011;41244;49.242;9.060;2023-04-06T07:05:51;15.57;;;13.60;;
55362;SDS011;41244;49.242;9.060;2023-04-06T07:08:21;18.75;;;14.10;;
55362;SDS011;41244;49.242;9.060;2023-04-06T07:10:48;15.43;;;13.82;;
55362;SDS011;41244;49.242;9.060;2023-04-06T07:13:17;19.63;;;15.10;;
55362;SDS011;41244;49.242;9.060;2023-04-06T07:15:48;17.90;;;14.75;;
55362;SDS011;41244;49.242;9.060;2023-04-06T07:18:15;17.63;;;13.35;;
55362;SDS011;41244;49.242;9.060;2023-04-06T07:20:41;15.85;;;13.43;;
55362;SDS011;41244;49.242;9.060;2023-04-06T07:23:07;17.30;;;13.85;;
55362;SDS011;41244;49.242;9.060;2023-04-06T07:25:33;17.63;;;14.05;;
55362;SDS011;41244;49.242;9.060;2023-04-06T07:27:59;18.65;;;14.18;;
55362;SDS011;41244;49.242;9.060;2023-04-06T07:30:24;16.88;;;13.63;;
55362;SDS011;41244;49.242;9.060;2023-04-06T07:32:52;20.33;;;15.23;;
55362;SDS011;41244;49.242;9.060;2023-04-06T07:35:20;14.95;;;13.23;;
55362;SDS011;41244;49.242;9.060;2023-04-06T07:37:47;15.85;;;13.10;;
55362;SDS011;41244;49.242;9.060;2023-04-06T07:40:13;17.92;;;14.05;;
55362;SDS011;41244;49.242;9.060;2023-04-06T07:42:38;19.15;;;14.60;;
55362;SDS011;41244;49.242;9.060;2023-04-06T07:45:05;16.52;;;13.90;;
55362;SDS011;41244;49.242;9.060;2023-04-06T07:47:31;17.55;;;13.45;;
55362;SDS011;41244;49.242;9.060;2023-04-06T07:49:57;15.10;;;13.50;;
55362;SDS011;41244;49.242;9.060;2023-04-06T07:52:23;18.65;;;14.30;;
55362;SDS011;41244;49.242;9.060;2023-04-06T07:54:49;19.25;;;14.82;;
55362;SDS011;41244;49.242;9.060;2023-04-06T07:57:15;20.75;;;18.33;;
55362;SDS011;41244;49.242;9.060;2023-04-06T07:59:41;15.63;;;14.00;;
55362;SDS011;41244;49.242;9.060;2023-04-06T08:02:06;16.17;;;13.35;;
55362;SDS011;41244;49.242;9.060;2023-04-06T08:04:32;17.35;;;14.15;;
55362;SDS011;41244;49.242;9.060;2023-04-06T08:06:58;15.27;;;13.77;;
55362;SDS011;41244;49.242;9.060;2023-04-06T08:09:24;16.98;;;14.48;;
55362;SDS011;41244;49.242;9.060;2023-04-06T08:11:50;17.65;;;13.77;;
55362;SDS011;41244;49.242;9.060;2023-04-06T08:14:15;16.20;;;14.05;;
55362;SDS011;41244;49.242;9.060;2023-04-06T08:16:41;15.68;;;13.70;;
55362;SDS011;41244;49.242;9.060;2023-04-06T08:19:07;17.83;;;14.23;;
55362;SDS011;41244;49.242;9.060;2023-04-06T08:21:34;16.70;;;13.90;;
55362;SDS011;41244;49.242;9.060;2023-04-06T08:24:01;20.60;;;14.85;;
55362;SDS011;41244;49.242;9.060;2023-04-06T08:26:27;15.73;;;13.10;;
55362;SDS011;41244;49.242;9.060;2023-04-06T08:28:53;18.67;;;15.13;;
55362;SDS011;41244;49.242;9.060;2023-04-06T08:31:19;14.68;;;13.05;;
55362;SDS011;41244;49.242;9.060;2023-04-06T08:33:45;20.05;;;17.25;;
55362;SDS011;41244;49.242;9.060;2023-04-06T08:36:12;14.70;;;13.02;;
55362;SDS011;41244;49.242;9.060;2023-04-06T08:38:39;17.85;;;14.25;;
55362;SDS011;41244;49.242;9.060;2023-04-06T08:41:06;15.70;;;13.45;;
55362;SDS011;41244;49.242;9.060;2023-04-06T08:43:36;15.68;;;12.77;;
55362;SDS011;41244;49.242;9.060;2023-04-06T08:46:26;17.15;;;12.85;;
55362;SDS011;41244;49.242;9.060;2023-04-06T08:48:59;14.20;;;12.75;;
55362;SDS011;41244;49.242;9.060;2023-04-06T08:51:27;15.88;;;12.95;;
55362;SDS011;41244;49.242;9.060;2023-04-06T08:53:55;14.10;;;12.27;;
55362;SDS011;41244;49.242;9.060;2023-04-06T08:56:23;13.48;;;12.07;;
55362;SDS011;41244;49.242;9.060;2023-04-06T08:58:50;14.07;;;11.93;;
55362;SDS011;41244;49.242;9.060;2023-04-06T09:01:20;13.52;;;11.10;;
55362;SDS011;41244;49.242;9.060;2023-04-06T09:03:48;14.02;;;12.43;;
55362;SDS011;41244;49.242;9.060;2023-04-06T09:06:15;13.45;;;11.73;;
55362;SDS011;41244;49.242;9.060;2023-04-06T09:08:41;13.15;;;11.82;;
55362;SDS011;41244;49.242;9.060;2023-04-06T09:11:07;14.68;;;11.77;;
55362;SDS011;41244;49.242;9.060;2023-04-06T09:13:53;13.65;;;11.75;;
55362;SDS011;41244;49.242;9.060;2023-04-06T09:16:20;15.23;;;12.27;;
55362;SDS011;41244;49.242;9.060;2023-04-06T09:18:46;13.60;;;12.10;;
55362;SDS011;41244;49.242;9.060;2023-04-06T09:21:15;14.65;;;13.25;;
55362;SDS011;41244;49.242;9.060;2023-04-06T09:23:43;14.52;;;12.18;;
55362;SDS011;41244;49.242;9.060;2023-04-06T09:26:10;15.07;;;13.45;;
55362;SDS011;41244;49.242;9.060;2023-04-06T09:28:49;13.10;;;11.45;;
55362;SDS011;41244;49.242;9.060;2023-04-06T09:31:23;13.70;;;11.50;;
55362;SDS011;41244;49.242;9.060;2023-04-06T09:33:52;14.60;;;11.73;;
55362;SDS011;41244;49.242;9.060;2023-04-06T09:36:18;13.73;;;11.45;;
55362;SDS011;41244;49.242;9.060;2023-04-06T09:38:55;15.93;;;11.30;;
55362;SDS011;41244;49.242;9.060;2023-04-06T09:41:28;16.42;;;14.27;;
55362;SDS011;41244;49.242;9.060;2023-04-06T09:46:32;14.32;;;10.75;;
55362;SDS011;41244;49.242;9.060;2023-04-06T09:49:08;11.90;;;10.55;;
55362;SDS011;41244;49.242;9.060;2023-04-06T09:54:15;11.70;;;10.38;;
55362;SDS011;41244;49.242;9.060;2023-04-06T09:59:14;13.65;;;11.00;;
55362;SDS011;41244;49.242;9.060;2023-04-06T10:01:51;13.70;;;10.80;;
55362;SDS011;41244;49.242;9.060;2023-04-06T10:06:55;14.63;;;11.40;;
55362;SDS011;41244;49.242;9.060;2023-04-06T10:09:22;14.02;;;11.82;;
55362;SDS011;41244;49.242;9.060;2023-04-06T10:11:50;29.42;;;14.43;;
55362;SDS011;41244;49.242;9.060;2023-04-06T10:14:16;21.88;;;12.50;;
55362;SDS011;41244;49.242;9.060;2023-04-06T10:16:42;12.25;;;10.85;;
55362;SDS011;41244;49.242;9.060;2023-04-06T10:19:10;14.15;;;12.02;;
55362;SDS011;41244;49.242;9.060;2023-04-06T10:21:41;15.43;;;12.02;;
55362;SDS011;41244;49.242;9.060;2023-04-06T10:24:09;13.30;;;10.98;;
55362;SDS011;41244;49.242;9.060;2023-04-06T10:26:35;11.13;;;10.00;;
55362;SDS011;41244;49.242;9.060;2023-04-06T10:29:05;12.07;;;10.05;;
55362;SDS011;41244;49.242;9.060;2023-04-06T10:31:31;12.85;;;10.38;;
55362;SDS011;41244;49.242;9.060;2023-04-06T10:33:58;14.38;;;11.60;;
55362;SDS011;41244;49.242;9.060;2023-04-06T10:36:26;13.43;;;10.90;;
55362;SDS011;41244;49.242;9.060;2023-04-06T10:38:59;12.32;;;11.02;;
55362;SDS011;41244;49.242;9.060;2023-04-06T10:41:35;16.00;;;10.73;;
55362;SDS011;41244;49.242;9.060;2023-04-06T10:44:22;14.13;;;10.85;;
55362;SDS011;41244;49.242;9.060;2023-04-06T10:46:56;12.70;;;10.57;;
55362;SDS011;41244;49.242;9.060;2023-04-06T10:49:25;14.88;;;11.32;;
55362;SDS011;41244;49.242;9.060;2023-04-06T10:51:55;12.43;;;10.45;;
55362;SDS011;41244;49.242;9.060;2023-04-06T10:54:21;10.80;;;9.68;;
55362;SDS011;41244;49.242;9.060;2023-04-06T10:56:50;12.15;;;10.88;;
55362;SDS011;41244;49.242;9.060;2023-04-06T10:59:19;14.00;;;11.25;;
55362;SDS011;41244;49.242;9.060;2023-04-06T11:01:46;11.20;;;10.00;;
55362;SDS011;41244;49.242;9.060;2023-04-06T11:04:15;11.35;;;9.98;;
55362;SDS011;41244;49.242;9.060;2023-04-06T11:06:46;12.13;;;10.70;;
55362;SDS011;41244;49.242;9.060;2023-04-06T11:09:22;11.43;;;10.23;;
55362;SDS011;41244;49.242;9.060;2023-04-06T11:11:53;14.38;;;10.15;;
55362;SDS011;41244;49.242;9.060;2023-04-06T11:14:20;46.35;;;26.25;;
55362;SDS011;41244;49.242;9.060;2023-04-06T11:16:46;12.80;;;11.18;;
55362;SDS011;41244;49.242;9.060;2023-04-06T11:19:16;14.45;;;10.80;;
55362;SDS011;41244;49.242;9.060;2023-04-06T11:21:46;16.67;;;12.20;;
55362;SDS011;41244;49.242;9.060;2023-04-06T11:26:44;11.18;;;9.65;;
55362;SDS011;41244;49.242;9.060;2023-04-06T11:29:19;11.65;;;10.00;;
55362;SDS011;41244;49.242;9.060;2023-04-06T11:31:48;11.80;;;10.43;;
55362;SDS011;41244;49.242;9.060;2023-04-06T11:34:23;12.38;;;11.02;;
55362;SDS011;41244;49.242;9.060;2023-04-06T11:36:57;12.88;;;10.30;;
55362;SDS011;41244;49.242;9.060;2023-04-06T11:39:27;12.35;;;10.30;;
55362;SDS011;41244;49.242;9.060;2023-04-06T11:41:56;12.40;;;9.50;;
55362;SDS011;41244;49.242;9.060;2023-04-06T11:44:34;12.48;;;9.68;;
55362;SDS011;41244;49.242;9.060;2023-04-06T11:47:09;10.77;;;9.65;;
55362;SDS011;41244;49.242;9.060;2023-04-06T11:49:37;12.40;;;9.68;;
55362;SDS011;41244;49.242;9.060;2023-04-06T11:52:21;16.83;;;10.98;;
55362;SDS011;41244;49.242;9.060;2023-04-06T11:54:53;12.40;;;11.18;;
55362;SDS011;41244;49.242;9.060;2023-04-06T11:57:19;13.85;;;11.63;;
55362;SDS011;41244;49.242;9.060;2023-04-06T11:59:46;13.80;;;11.13;;
55362;SDS011;41244;49.242;9.060;2023-04-06T12:02:12;14.00;;;12.07;;
55362;SDS011;41244;49.242;9.060;2023-04-06T12:04:38;11.30;;;9.95;;
55362;SDS011;41244;49.242;9.060;2023-04-06T12:07:04;11.43;;;10.18;;
55362;SDS011;41244;49.242;9.060;2023-04-06T12:09:30;11.25;;;9.43;;
55362;SDS011;41244;49.242;9.060;2023-04-06T12:11:56;11.57;;;9.40;;
55362;SDS011;41244;49.242;9.060;2023-04-06T12:14:22;11.98;;;9.57;;
55362;SDS011;41244;49.242;9.060;2023-04-06T12:16:48;11.48;;;9.80;;
55362;SDS011;41244;49.242;9.060;2023-04-06T12:19:14;10.77;;;9.68;;
55362;SDS011;41244;49.242;9.060;2023-04-06T12:21:40;12.60;;;10.43;;
55362;SDS011;41244;49.242;9.060;2023-04-06T12:24:07;12.88;;;10.90;;
55362;SDS011;41244;49.242;9.060;2023-04-06T12:26:33;46.20;;;11.13;;
55362;SDS011;41244;49.242;9.060;2023-04-06T12:28:59;15.10;;;9.60;;
55362;SDS011;41244;49.242;9.060;2023-04-06T12:31:31;12.80;;;9.25;;
55362;SDS011;41244;49.242;9.060;2023-04-06T12:33:59;10.73;;;9.63;;
55362;SDS011;41244;49.242;9.060;2023-04-06T12:36:27;15.20;;;10.15;;
55362;SDS011;41244;49.242;9.060;2023-04-06T12:38:53;10.40;;;8.90;;
55362;SDS011;41244;49.242;9.060;2023-04-06T12:41:19;12.02;;;10.27;;
55362;SDS011;41244;49.242;9.060;2023-04-06T12:43:45;17.75;;;9.77;;
55362;SDS011;41244;49.242;9.060;2023-04-06T12:46:11;11.02;;;9.93;;
55362;SDS011;41244;49.242;9.060;2023-04-06T12:48:37;10.55;;;9.35;;
55362;SDS011;41244;49.242;9.060;2023-04-06T12:51:04;11.20;;;10.00;;
55362;SDS011;41244;49.242;9.060;2023-04-06T12:53:30;10.93;;;9.50;;
55362;SDS011;41244;49.242;9.060;2023-04-06T12:55:57;13.25;;;9.48;;
55362;SDS011;41244;49.242;9.060;2023-04-06T12:58:24;10.57;;;9.48;;
55362;SDS011;41244;49.242;9.060;2023-04-06T13:00:53;17.50;;;10.60;;
55362;SDS011;41244;49.242;9.060;2023-04-06T13:03:21;12.13;;;10.82;;
55362;SDS011;41244;49.242;9.060;2023-04-06T13:05:47;13.85;;;11.00;;
55362;SDS011;41244;49.242;9.060;2023-04-06T13:08:17;14.20;;;10.30;;
55362;SDS011;41244;49.242;9.060;2023-04-06T13:13:14;10.77;;;9.70;;
55362;SDS011;41244;49.242;9.060;2023-04-06T13:15:41;13.63;;;9.73;;
55362;SDS011;41244;49.242;9.060;2023-04-06T13:18:07;10.55;;;9.05;;
55362;SDS011;41244;49.242;9.060;2023-04-06T13:20:33;11.13;;;9.25;;
55362;SDS011;41244;49.242;9.060;2023-04-06T13:23:00;12.73;;;9.57;;
55362;SDS011;41244;49.242;9.060;2023-04-06T13:25:26;10.20;;;8.65;;
55362;SDS011;41244;49.242;9.060;2023-04-06T13:27:53;11.55;;;9.68;;
55362;SDS011;41244;49.242;9.060;2023-04-06T13:30:19;11.70;;;10.23;;
55362;SDS011;41244;49.242;9.060;2023-04-06T13:32:45;10.18;;;9.13;;
55362;SDS011;41244;49.242;9.060;2023-04-06T13:35:11;12.52;;;9.98;;
55362;SDS011;41244;49.242;9.060;2023-04-06T13:37:37;12.25;;;9.63;;
55362;SDS011;41244;49.242;9.060;2023-04-06T13:40:03;10.45;;;9.40;;
55362;SDS011;41244;49.242;9.060;2023-04-06T13:42:30;11.23;;;9.18;;
55362;SDS011;41244;49.242;9.060;2023-04-06T13:44:56;10.95;;;8.45;;
55362;SDS011;41244;49.242;9.060;2023-04-06T13:47:22;11.30;;;8.98;;
55362;SDS011;41244;49.242;9.060;2023-04-06T13:49:49;11.30;;;8.52;;
55362;SDS011;41244;49.242;9.060;2023-04-06T13:52:16;12.68;;;9.05;;
55362;SDS011;41244;49.242;9.060;2023-04-06T13:54:43;14.10;;;10.50;;
55362;SDS011;41244;49.242;9.060;2023-04-06T13:57:09;11.13;;;9.93;;
55362;SDS011;41244;49.242;9.060;2023-04-06T13:59:35;18.17;;;9.52;;
55362;SDS011;41244;49.242;9.060;2023-04-06T14:02:01;12.05;;;9.95;;
55362;SDS011;41244;49.242;9.060;2023-04-06T14:04:28;10.20;;;9.07;;
55362;SDS011;41244;49.242;9.060;2023-04-06T14:06:54;12.88;;;9.35;;
55362;SDS011;41244;49.242;9.060;2023-04-06T14:09:20;10.70;;;8.98;;
55362;SDS011;41244;49.242;9.060;2023-04-06T14:11:46;9.70;;;8.70;;
55362;SDS011;41244;49.242;9.060;2023-04-06T14:14:11;16.00;;;9.07;;
55362;SDS011;41244;49.242;9.060;2023-04-06T14:16:37;9.05;;;8.10;;
55362;SDS011;41244;49.242;9.060;2023-04-06T14:19:03;11.20;;;8.40;;
55362;SDS011;41244;49.242;9.060;2023-04-06T14:21:29;10.98;;;9.23;;
55362;SDS011;41244;49.242;9.060;2023-04-06T14:23:55;10.15;;;8.50;;
55362;SDS011;41244;49.242;9.060;2023-04-06T14:26:21;11.23;;;8.52;;
55362;SDS011;41244;49.242;9.060;2023-04-06T14:28:47;12.18;;;9.18;;
55362;SDS011;41244;49.242;9.060;2023-04-06T14:31:13;11.43;;;8.45;;
55362;SDS011;41244;49.242;9.060;2023-04-06T14:33:40;9.25;;;8.38;;
55362;SDS011;41244;49.242;9.060;2023-04-06T14:36:07;11.82;;;8.95;;
55362;SDS011;41244;49.242;9.060;2023-04-06T14:38:34;13.30;;;9.55;;